Time;durP1;ratioP1;P1;durP2;ratioP2;P2;SDS_P1;SDS_P2;PMS_P1;PMS_P2;Temp;Humidity;BMP_temperature;BMP_pressure;BME280_temperature;BME280_humidity;BME280_pressure;Samples;Min_cycle;Max_cycle;Signal;HPM_P1;HPM_P2
2022/04/13 00:00:42;;;;;;;12.88;6.47;;;12.60;99.90;;;;;;4981831;28;20375;-71
2022/04/13 00:03:07;;;;;;;10.80;6.57;;;12.60;99.90;;;;;;4999341;28;20835;-72
2022/04/13 00:05:38;;;;;;;10.50;6.22;;;12.50;99.90;;;;;;4981370;28;20053;-72
2022/04/13 00:08:06;;;;;;;13.25;7.00;;;12.50;99.90;;;;;;4998477;28;20129;-71
2022/04/13 00:10:35;;;;;;;10.65;6.40;;;12.40;99.90;;;;;;4998647;28;20363;-74
2022/04/13 00:13:00;;;;;;;10.05;6.22;;;12.40;99.90;;;;;;4998508;28;20042;-72
2022/04/13 00:15:26;;;;;;;12.00;6.22;;;12.40;99.90;;;;;;4998474;28;20042;-72
2022/04/13 00:17:52;;;;;;;11.00;5.68;;;12.30;99.90;;;;;;4998204;28;20050;-71
2022/04/13 00:20:17;;;;;;;8.20;6.05;;;12.30;99.90;;;;;;4997696;28;20096;-71
2022/04/13 00:22:43;;;;;;;9.32;6.38;;;12.20;99.90;;;;;;4997736;28;20371;-70
2022/04/13 00:25:09;;;;;;;9.07;5.55;;;12.20;99.90;;;;;;4998116;28;20046;-72
2022/04/13 00:27:35;;;;;;;8.85;6.28;;;12.20;99.90;;;;;;4998367;28;20038;-73
2022/04/13 00:30:01;;;;;;;10.13;6.82;;;12.10;99.90;;;;;;4981046;28;20395;-72
2022/04/13 00:32:26;;;;;;;10.40;5.72;;;12.10;99.90;;;;;;4998150;28;20196;-72
2022/04/13 00:34:52;;;;;;;11.20;6.00;;;12.10;99.90;;;;;;4998061;28;20125;-74
2022/04/13 00:37:17;;;;;;;8.68;5.88;;;12.00;99.90;;;;;;4994897;28;20356;-73
2022/04/13 00:39:43;;;;;;;10.23;6.22;;;12.00;99.90;;;;;;4981010;28;20054;-73
2022/04/13 00:42:09;;;;;;;11.43;6.28;;;11.90;99.90;;;;;;4980724;28;20055;-72
2022/04/13 00:44:35;;;;;;;10.90;6.43;;;11.90;99.90;;;;;;4997184;28;20462;-72
2022/04/13 00:47:06;;;;;;;9.85;6.18;;;11.90;99.90;;;;;;4981514;28;20147;-74
2022/04/13 00:49:32;;;;;;;10.52;6.70;;;11.90;99.90;;;;;;4997813;28;20471;-71
2022/04/13 00:52:03;;;;;;;12.82;6.78;;;11.80;99.90;;;;;;4980989;28;20081;-72
2022/04/13 00:54:30;;;;;;;9.43;6.28;;;11.80;99.90;;;;;;4980513;28;20050;-72
2022/04/13 00:56:56;;;;;;;12.50;7.00;;;11.80;99.90;;;;;;4997567;28;20451;-73
2022/04/13 00:59:24;;;;;;;9.02;6.78;;;11.80;99.90;;;;;;4997742;28;20185;-73
2022/04/13 01:01:53;;;;;;;11.25;6.93;;;11.80;99.90;;;;;;4997464;28;20057;-73
2022/04/13 01:04:20;;;;;;;12.50;6.80;;;11.80;99.90;;;;;;4980428;28;20367;-72
2022/04/13 01:06:45;;;;;;;10.63;7.13;;;11.80;99.90;;;;;;4997674;28;20478;-72
2022/04/13 01:09:13;;;;;;;12.00;7.30;;;11.80;99.90;;;;;;4980169;28;20042;-73
2022/04/13 01:11:39;;;;;;;13.85;8.50;;;11.80;99.90;;;;;;4997675;28;20353;-72
2022/04/13 01:14:06;;;;;;;12.68;7.72;;;11.80;99.90;;;;;;4980398;28;20050;-71
2022/04/13 01:16:34;;;;;;;10.50;6.72;;;11.80;99.90;;;;;;4997338;28;20062;-72
2022/04/13 01:18:59;;;;;;;11.88;7.18;;;11.80;99.90;;;;;;4997556;28;20398;-73
2022/04/13 01:21:45;;;;;;;9.65;6.78;;;11.80;99.90;;;;;;4978394;28;20110;-73
2022/04/13 01:24:11;;;;;;;8.80;6.43;;;11.80;99.90;;;;;;4944462;28;20062;-74
2022/04/13 01:26:37;;;;;;;20.20;7.32;;;11.80;99.90;;;;;;4977829;28;20062;-73
2022/04/13 01:29:03;;;;;;;13.13;7.80;;;11.80;99.90;;;;;;4977632;28;20047;-72
2022/04/13 01:31:28;;;;;;;13.30;7.25;;;11.80;99.90;;;;;;4977552;28;20126;-72
2022/04/13 01:33:54;;;;;;;10.45;7.43;;;11.70;99.90;;;;;;4977536;28;20122;-72
2022/04/13 01:36:20;;;;;;;13.32;7.43;;;11.80;99.90;;;;;;4960195;28;20051;-72
2022/04/13 01:38:45;;;;;;;10.90;8.00;;;11.70;99.90;;;;;;4971597;28;20046;-71
2022/04/13 01:41:11;;;;;;;12.75;7.60;;;11.70;99.90;;;;;;4979781;28;20493;-72
2022/04/13 01:43:36;;;;;;;11.68;7.53;;;11.70;99.90;;;;;;4996717;28;20359;-72
2022/04/13 01:46:02;;;;;;;10.10;7.85;;;11.60;99.90;;;;;;4996504;28;20124;-72
2022/04/13 01:48:31;;;;;;;12.50;8.73;;;11.60;99.90;;;;;;4980248;28;20046;-71
2022/04/13 01:50:58;;;;;;;16.15;7.60;;;11.60;99.90;;;;;;4982296;28;20113;-73
2022/04/13 01:53:24;;;;;;;11.27;7.88;;;11.60;99.90;;;;;;4977315;28;20166;-71
2022/04/13 01:55:50;;;;;;;10.88;8.10;;;11.70;99.90;;;;;;4977137;28;20431;-73
2022/04/13 01:58:16;;;;;;;11.02;8.00;;;11.60;99.90;;;;;;4976373;28;20042;-72
2022/04/13 02:00:41;;;;;;;15.68;8.13;;;11.60;99.90;;;;;;4978179;28;20038;-72
2022/04/13 02:03:07;;;;;;;12.30;8.45;;;11.70;99.90;;;;;;4977005;28;20105;-72
2022/04/13 02:05:32;;;;;;;12.98;7.82;;;11.60;99.90;;;;;;4977049;28;20061;-73
2022/04/13 02:07:58;;;;;;;11.35;8.10;;;11.60;99.90;;;;;;4959744;28;20047;-73
2022/04/13 02:10:24;;;;;;;14.30;8.77;;;11.60;99.90;;;;;;4959641;28;20129;-73
2022/04/13 02:12:49;;;;;;;13.60;8.73;;;11.60;99.90;;;;;;4977190;28;20463;-72
2022/04/13 02:15:16;;;;;;;12.18;8.80;;;11.60;99.90;;;;;;4960283;28;20058;-73
2022/04/13 02:17:42;;;;;;;14.57;8.85;;;11.60;99.90;;;;;;4977090;28;20042;-72
2022/04/13 02:20:08;;;;;;;14.10;8.38;;;11.60;99.90;;;;;;4983893;28;20525;-74
2022/04/13 02:22:34;;;;;;;23.52;9.40;;;11.50;99.90;;;;;;4996219;28;20050;-72
2022/04/13 02:25:04;;;;;;;13.10;9.20;;;11.50;99.90;;;;;;4978794;28;20148;-72
2022/04/13 02:27:30;;;;;;;13.77;9.65;;;11.50;99.90;;;;;;4996278;28;20054;-75
2022/04/13 02:29:56;;;;;;;13.45;9.02;;;11.50;99.90;;;;;;4978922;28;20371;-73
2022/04/13 02:32:21;;;;;;;11.90;8.85;;;11.40;99.90;;;;;;4995976;28;20469;-72
2022/04/13 02:34:48;;;;;;;15.88;9.32;;;11.40;99.90;;;;;;4978851;28;20146;-72
2022/04/13 02:37:15;;;;;;;13.10;8.98;;;11.30;99.90;;;;;;4996235;28;20059;-73
2022/04/13 02:39:41;;;;;;;15.43;10.05;;;11.30;99.90;;;;;;4995884;28;20082;-72
2022/04/13 02:42:07;;;;;;;16.67;9.60;;;11.30;99.90;;;;;;4995952;28;20443;-72
2022/04/13 02:44:32;;;;;;;14.38;8.85;;;11.30;99.90;;;;;;4995617;28;20048;-73
2022/04/13 02:46:59;;;;;;;19.17;8.82;;;11.30;99.90;;;;;;4996564;28;20070;-73
2022/04/13 02:49:25;;;;;;;11.65;8.70;;;11.30;99.90;;;;;;4977426;28;20051;-71
2022/04/13 02:51:51;;;;;;;13.45;9.68;;;11.30;99.90;;;;;;4977665;28;20042;-72
2022/04/13 02:54:16;;;;;;;11.70;9.13;;;11.20;99.90;;;;;;4978371;28;20138;-73
2022/04/13 02:56:42;;;;;;;16.38;10.30;;;11.20;99.90;;;;;;4978512;28;20149;-73
2022/04/13 02:59:07;;;;;;;12.95;9.35;;;11.10;99.90;;;;;;4995962;28;20054;-73
2022/04/13 03:01:33;;;;;;;13.75;9.75;;;11.20;99.90;;;;;;4995700;28;20133;-72
2022/04/13 03:03:58;;;;;;;13.35;10.65;;;11.10;99.90;;;;;;4978674;28;20132;-73
2022/04/13 03:06:24;;;;;;;16.75;10.48;;;11.10;99.90;;;;;;4994401;28;20042;-72
2022/04/13 03:08:50;;;;;;;16.48;10.07;;;11.10;99.90;;;;;;4995198;28;20080;-72
2022/04/13 03:11:17;;;;;;;16.50;11.07;;;11.20;99.90;;;;;;4978668;28;20054;-72
2022/04/13 03:13:42;;;;;;;16.00;11.07;;;11.00;99.90;;;;;;4978019;28;20133;-73
2022/04/13 03:16:08;;;;;;;16.50;10.90;;;11.10;99.90;;;;;;4994905;28;20133;-71
2022/04/13 03:18:34;;;;;;;15.07;9.85;;;11.00;99.90;;;;;;4994239;28;20069;-73
2022/04/13 03:20:59;;;;;;;13.93;9.82;;;11.00;99.90;;;;;;4978393;28;20134;-74
2022/04/13 03:23:25;;;;;;;18.40;11.15;;;10.90;99.90;;;;;;4969818;28;20128;-73
2022/04/13 03:25:52;;;;;;;16.92;11.48;;;10.90;99.90;;;;;;4959261;28;20066;-72
2022/04/13 03:28:19;;;;;;;15.82;12.02;;;10.90;99.90;;;;;;4976116;28;20039;-72
2022/04/13 03:30:45;;;;;;;17.58;11.45;;;10.90;99.90;;;;;;4976030;28;20046;-72
2022/04/13 03:33:11;;;;;;;16.40;10.98;;;10.90;99.90;;;;;;4976086;28;20038;-72
2022/04/13 03:35:36;;;;;;;16.48;10.88;;;10.80;99.90;;;;;;4974827;28;20378;-72
2022/04/13 03:38:02;;;;;;;18.00;12.45;;;10.80;99.90;;;;;;4975755;28;20089;-72
2022/04/13 03:40:27;;;;;;;17.13;11.60;;;10.80;99.90;;;;;;4976166;28;20039;-73
2022/04/13 03:42:53;;;;;;;22.20;12.05;;;10.80;99.90;;;;;;4975866;28;20050;-72
2022/04/13 03:45:19;;;;;;;18.50;11.38;;;10.80;99.90;;;;;;4974913;28;20482;-72
2022/04/13 03:47:44;;;;;;;20.05;11.55;;;10.80;99.90;;;;;;4975846;28;20051;-74
2022/04/13 03:50:11;;;;;;;21.70;12.50;;;10.90;99.90;;;;;;4958182;28;20113;-73
2022/04/13 03:52:37;;;;;;;20.27;12.07;;;10.90;99.90;;;;;;4975778;28;20049;-72
2022/04/13 03:55:04;;;;;;;18.55;12.02;;;11.00;99.90;;;;;;4974441;28;20046;-71
2022/04/13 03:57:31;;;;;;;23.85;13.77;;;10.90;99.90;;;;;;4975654;28;20055;-71
2022/04/13 03:59:56;;;;;;;19.10;13.00;;;10.90;99.90;;;;;;4977439;28;20081;-71
2022/04/13 04:02:22;;;;;;;19.05;12.55;;;11.00;99.90;;;;;;4958427;28;20471;-73
2022/04/13 04:04:48;;;;;;;15.23;11.23;;;11.00;99.90;;;;;;4974742;28;20093;-73
2022/04/13 04:07:14;;;;;;;23.08;14.25;;;11.10;99.90;;;;;;4973163;28;20047;-73
2022/04/13 04:09:39;;;;;;;18.00;12.90;;;11.10;99.90;;;;;;4973395;28;20144;-70
2022/04/13 04:12:05;;;;;;;24.33;13.13;;;11.10;99.90;;;;;;4970865;28;20054;-73
2022/04/13 04:14:31;;;;;;;20.65;13.43;;;11.20;99.90;;;;;;4973123;28;20047;-71
2022/04/13 04:16:56;;;;;;;20.40;12.85;;;11.20;99.90;;;;;;4946025;28;20055;-73
2022/04/13 04:19:22;;;;;;;22.00;13.52;;;11.30;99.90;;;;;;4973368;28;20058;-72
2022/04/13 04:21:47;;;;;;;21.05;13.18;;;11.30;99.90;;;;;;4928445;28;20055;-72
2022/04/13 04:24:13;;;;;;;20.90;13.38;;;11.40;99.90;;;;;;4960711;28;20055;-72
2022/04/13 04:26:39;;;;;;;18.75;12.88;;;11.30;99.90;;;;;;4976865;28;20059;-72
2022/04/13 04:29:05;;;;;;;20.27;13.05;;;11.30;99.90;;;;;;4960922;28;20047;-73
2022/04/13 04:32:13;;;;;;;18.48;11.30;;;11.30;99.90;;;;;;4972769;28;20062;-71
2022/04/13 04:34:22;;;;;;;18.98;12.55;;;11.30;99.90;;;;;;4967720;28;20333;-73
2022/04/13 04:36:48;;;;;;;20.50;12.48;;;11.20;99.90;;;;;;4978529;28;20047;-71
2022/04/13 04:39:14;;;;;;;20.55;14.05;;;11.20;99.90;;;;;;4977446;28;20130;-73
2022/04/13 04:41:40;;;;;;;22.58;13.73;;;11.20;99.90;;;;;;4978657;28;20113;-71
2022/04/13 04:44:08;;;;;;;22.27;14.27;;;11.10;99.90;;;;;;4976615;28;20030;-72
2022/04/13 04:46:34;;;;;;;22.98;12.63;;;11.10;99.90;;;;;;4977658;28;20078;-72
2022/04/13 04:48:59;;;;;;;23.42;14.02;;;11.10;99.90;;;;;;4979139;28;20502;-72
2022/04/13 04:51:25;;;;;;;22.08;14.25;;;11.20;99.90;;;;;;4993386;28;20117;-74
2022/04/13 04:53:50;;;;;;;22.85;14.55;;;11.10;99.90;;;;;;4993272;28;20039;-73
2022/04/13 04:56:16;;;;;;;20.42;14.02;;;11.10;99.90;;;;;;4977009;28;20046;-72
2022/04/13 04:58:42;;;;;;;20.58;13.50;;;11.10;99.90;;;;;;4978163;28;20436;-72
2022/04/13 05:01:08;;;;;;;21.40;12.57;;;11.10;99.90;;;;;;4993525;28;20058;-72
2022/04/13 05:03:34;;;;;;;22.05;13.15;;;11.10;99.90;;;;;;4977107;28;20050;-68
2022/04/13 05:05:59;;;;;;;19.77;13.52;;;11.10;99.90;;;;;;4977889;28;20476;-69
2022/04/13 05:08:25;;;;;;;26.42;14.63;;;11.10;99.90;;;;;;4978045;28;20047;-70
2022/04/13 05:10:51;;;;;;;24.70;14.20;;;11.10;99.90;;;;;;4978001;28;20065;-70
2022/04/13 05:13:20;;;;;;;21.80;12.45;;;11.10;99.90;;;;;;4968749;28;20066;-71
2022/04/13 05:15:48;;;;;;;19.33;13.90;;;11.20;99.90;;;;;;4958571;28;20444;-73
2022/04/13 05:18:14;;;;;;;24.83;14.07;;;11.20;99.90;;;;;;4957987;28;20448;-71
2022/04/13 05:20:40;;;;;;;21.55;14.55;;;11.20;99.90;;;;;;4970267;28;20061;-72
2022/04/13 05:23:06;;;;;;;22.13;14.20;;;11.30;99.90;;;;;;4976743;28;20034;-72
2022/04/13 05:25:31;;;;;;;24.80;14.18;;;11.40;99.90;;;;;;4994461;28;20472;-74
2022/04/13 05:27:57;;;;;;;27.67;14.85;;;11.40;99.90;;;;;;4997371;28;20100;-74
2022/04/13 05:30:22;;;;;;;21.60;13.52;;;11.50;99.90;;;;;;4995846;28;20061;-72
2022/04/13 05:32:49;;;;;;;23.45;13.95;;;11.50;99.90;;;;;;4978124;28;20050;-69
2022/04/13 05:35:16;;;;;;;20.75;13.65;;;11.60;99.90;;;;;;4995631;28;20046;-72
2022/04/13 05:37:42;;;;;;;27.33;14.98;;;11.70;99.90;;;;;;4996435;28;20050;-75
2022/04/13 05:40:08;;;;;;;22.90;14.48;;;11.70;99.90;;;;;;4996563;28;20117;-72
2022/04/13 05:42:34;;;;;;;19.70;12.85;;;11.80;99.90;;;;;;4987499;28;20042;-72
2022/04/13 05:44:59;;;;;;;19.58;14.15;;;11.80;99.90;;;;;;4993456;28;20149;-71
2022/04/13 05:47:26;;;;;;;29.05;14.88;;;11.90;99.90;;;;;;4978372;28;20096;-73
2022/04/13 05:49:51;;;;;;;24.73;14.60;;;11.90;99.90;;;;;;4996266;28;20050;-71
2022/04/13 05:52:17;;;;;;;23.10;14.30;;;12.30;99.90;;;;;;4996103;28;20053;-73
2022/04/13 05:54:43;;;;;;;23.65;14.70;;;12.20;99.90;;;;;;4996363;28;20038;-73
2022/04/13 05:57:09;;;;;;;19.70;14.10;;;11.90;99.90;;;;;;4995777;28;20055;-72
2022/04/13 05:59:35;;;;;;;20.33;12.77;;;12.00;99.90;;;;;;4995917;28;20046;-73
2022/04/13 06:02:01;;;;;;;18.88;13.57;;;12.00;99.90;;;;;;4995993;28;20136;-75
2022/04/13 06:04:27;;;;;;;17.55;11.93;;;12.00;99.90;;;;;;4995408;28;20046;-74
2022/04/13 06:06:54;;;;;;;23.13;13.45;;;12.10;99.90;;;;;;4995488;28;20053;-73
2022/04/13 06:09:20;;;;;;;25.08;14.23;;;12.20;99.90;;;;;;4979938;28;20520;-72
2022/04/13 06:11:46;;;;;;;24.73;14.73;;;12.20;99.90;;;;;;4998063;28;20433;-74
2022/04/13 06:14:11;;;;;;;23.10;15.38;;;12.40;99.90;;;;;;4995834;28;20074;-73
2022/04/13 06:16:37;;;;;;;23.48;14.20;;;12.60;99.90;;;;;;4978851;28;20079;-73
2022/04/13 06:19:02;;;;;;;22.17;15.15;;;12.80;99.90;;;;;;4995749;28;20044;-73
2022/04/13 06:21:28;;;;;;;22.25;14.60;;;13.10;99.90;;;;;;4995716;28;20038;-73
2022/04/13 06:23:54;;;;;;;22.33;14.70;;;13.40;99.90;;;;;;4975018;28;20464;-73
2022/04/13 06:26:19;;;;;;;21.80;13.93;;;13.80;99.90;;;;;;4975646;28;20139;-75
2022/04/13 06:28:45;;;;;;;24.42;13.93;;;14.30;99.90;;;;;;4975321;28;20055;-74
2022/04/13 06:31:10;;;;;;;23.30;14.32;;;14.90;99.90;;;;;;4976281;28;20094;-72
2022/04/13 06:33:36;;;;;;;21.58;13.82;;;15.20;99.90;;;;;;4975259;28;20058;-73
2022/04/13 06:36:05;;;;;;;22.33;14.40;;;15.20;99.90;;;;;;4974875;28;20126;-73
2022/04/13 06:38:31;;;;;;;28.20;14.07;;;15.30;99.90;;;;;;4959025;28;20046;-74
2022/04/13 06:40:56;;;;;;;21.67;13.52;;;15.70;99.90;;;;;;4975544;28;20046;-74
2022/04/13 06:43:22;;;;;;;20.85;12.80;;;16.00;99.90;;;;;;4975116;28;20050;-74
2022/04/13 06:45:47;;;;;;;24.65;12.70;;;16.10;99.90;;;;;;4975319;28;20050;-72
2022/04/13 06:48:13;;;;;;;24.20;13.35;;;16.20;99.90;;;;;;4973770;28;20137;-72
2022/04/13 06:50:39;;;;;;;21.50;13.43;;;16.20;99.90;;;;;;4973391;28;20471;-73
2022/04/13 06:53:04;;;;;;;17.65;12.27;;;16.20;99.90;;;;;;4975946;28;20105;-74
2022/04/13 06:55:30;;;;;;;20.50;13.15;;;16.10;99.90;;;;;;4975871;28;20126;-74
2022/04/13 06:57:56;;;;;;;17.40;11.60;;;15.90;99.90;;;;;;4974736;28;20050;-73
2022/04/13 07:00:22;;;;;;;22.73;12.52;;;15.70;99.90;;;;;;4970366;28;20062;-75
2022/04/13 07:02:48;;;;;;;15.70;11.40;;;15.60;99.90;;;;;;4967881;28;20055;-73
2022/04/13 07:05:13;;;;;;;18.10;11.75;;;15.60;99.90;;;;;;4972928;28;20167;-74
2022/04/13 07:07:39;;;;;;;18.38;12.88;;;15.60;99.90;;;;;;4968112;28;20043;-74
2022/04/13 07:10:05;;;;;;;20.33;11.70;;;15.60;99.90;;;;;;4961010;28;20035;-74
2022/04/13 07:12:38;;;;;;;19.38;12.27;;;15.60;99.90;;;;;;4974136;28;20058;-73
2022/04/13 07:15:04;;;;;;;20.60;11.95;;;15.50;99.90;;;;;;4975455;28;20051;-74
2022/04/13 07:17:30;;;;;;;21.05;12.50;;;15.60;99.90;;;;;;4975573;28;20051;-76
2022/04/13 07:19:56;;;;;;;19.17;12.65;;;15.80;99.90;;;;;;4976066;28;20046;-74
2022/04/13 07:22:22;;;;;;;21.38;12.52;;;15.70;99.90;;;;;;4975469;28;20043;-74
2022/04/13 07:24:47;;;;;;;19.63;12.65;;;15.80;99.90;;;;;;4986560;28;20065;-74
2022/04/13 07:27:13;;;;;;;18.33;11.52;;;15.90;99.90;;;;;;4994842;28;20441;-75
2022/04/13 07:29:38;;;;;;;19.38;12.13;;;16.00;99.90;;;;;;4994841;28;20054;-71
2022/04/13 07:32:06;;;;;;;23.23;12.35;;;16.00;99.90;;;;;;4980020;28;20474;-72
2022/04/13 07:34:32;;;;;;;19.75;13.10;;;16.10;99.90;;;;;;4965316;28;20092;-73
2022/04/13 07:36:58;;;;;;;18.05;12.23;;;16.20;99.90;;;;;;4965861;28;20050;-74
2022/04/13 07:39:24;;;;;;;19.67;11.80;;;16.20;99.90;;;;;;4983702;28;20367;-74
2022/04/13 07:41:49;;;;;;;20.88;11.77;;;16.40;99.90;;;;;;4975111;28;20047;-72
2022/04/13 07:44:15;;;;;;;20.58;12.23;;;16.60;99.90;;;;;;4963567;28;20492;-75
2022/04/13 07:46:40;;;;;;;17.45;11.48;;;16.70;99.90;;;;;;4964131;28;20419;-73
2022/04/13 07:49:06;;;;;;;20.52;11.85;;;16.80;99.90;;;;;;4988180;28;20050;-72
2022/04/13 07:51:33;;;;;;;15.75;11.32;;;16.80;99.90;;;;;;4977802;28;20364;-75
2022/04/13 07:54:01;;;;;;;17.02;11.18;;;16.70;99.90;;;;;;4976870;28;20042;-74
2022/04/13 07:56:27;;;;;;;19.48;10.45;;;16.60;99.90;;;;;;4997130;28;20039;-73
2022/04/13 07:58:53;;;;;;;19.58;11.02;;;16.60;99.90;;;;;;4981051;28;20058;-74
2022/04/13 08:01:19;;;;;;;18.08;10.38;;;16.40;99.90;;;;;;4998059;28;20034;-75
2022/04/13 08:03:44;;;;;;;19.50;11.15;;;16.40;99.90;;;;;;4981502;28;20527;-75
2022/04/13 08:06:11;;;;;;;24.40;10.95;;;16.30;99.90;;;;;;4980767;28;20035;-72
2022/04/13 08:08:38;;;;;;;18.27;11.50;;;16.40;99.90;;;;;;4998364;28;20398;-74
2022/04/13 08:11:04;;;;;;;18.83;10.88;;;16.20;99.90;;;;;;4988529;28;20379;-72
2022/04/13 08:13:30;;;;;;;19.90;10.63;;;16.20;99.90;;;;;;4974286;28;20455;-73
2022/04/13 08:15:56;;;;;;;19.48;11.38;;;16.20;99.90;;;;;;4973528;28;20545;-72
2022/04/13 08:18:21;;;;;;;16.08;10.35;;;16.20;99.90;;;;;;4990836;28;20066;-72
2022/04/13 08:20:47;;;;;;;19.17;9.75;;;16.20;99.90;;;;;;4980320;28;20070;-72
2022/04/13 08:23:12;;;;;;;20.10;11.18;;;16.30;99.90;;;;;;4976882;28;20096;-75
2022/04/13 08:25:38;;;;;;;18.55;10.75;;;16.40;99.90;;;;;;4959575;28;20051;-73
2022/04/13 08:28:04;;;;;;;17.27;10.30;;;16.40;99.90;;;;;;4958405;29;20047;-74
2022/04/13 08:30:29;;;;;;;16.13;8.95;;;16.40;99.90;;;;;;4959707;29;20464;-75
2022/04/13 08:32:55;;;;;;;20.70;10.70;;;16.60;99.90;;;;;;4958217;28;20388;-73
2022/04/13 08:35:20;;;;;;;11.43;8.23;;;16.70;99.90;;;;;;4958971;29;20483;-73
2022/04/13 08:37:46;;;;;;;16.25;8.75;;;16.80;99.90;;;;;;4959316;28;20456;-72
2022/04/13 08:40:12;;;;;;;13.80;9.13;;;17.10;99.90;;;;;;4959392;29;20050;-74
2022/04/13 08:43:04;;;;;;;15.18;9.43;;;17.40;99.90;;;;;;4939106;28;20440;-74
2022/04/13 08:45:34;;;;;;;15.60;8.48;;;17.60;99.90;;;;;;4958360;28;20086;-73
2022/04/13 08:48:04;;;;;;;15.02;9.30;;;17.80;99.90;;;;;;4990396;28;20043;-74
2022/04/13 08:50:31;;;;;;;16.75;8.98;;;17.80;99.90;;;;;;4958403;29;20409;-73
2022/04/13 08:53:04;;;;;;;19.27;9.13;;;17.90;99.90;;;;;;4969032;28;20090;-74
2022/04/13 08:55:32;;;;;;;18.88;8.82;;;17.90;99.90;;;;;;4978233;28;20065;-73
2022/04/13 08:58:12;;;;;;;15.80;7.82;;;18.10;99.90;;;;;;4977961;28;20134;-74
2022/04/13 09:00:44;;;;;;;15.05;8.10;;;18.20;99.90;;;;;;4978169;28;20046;-73
2022/04/13 09:03:38;;;;;;;16.40;8.43;;;18.40;99.90;;;;;;4961509;28;20137;-74
2022/04/13 09:06:05;;;;;;;14.48;7.28;;;18.60;99.90;;;;;;4977443;28;20058;-74
2022/04/13 09:08:39;;;;;;;18.23;8.45;;;18.60;99.90;;;;;;4960979;28;20477;-73
2022/04/13 09:11:06;;;;;;;12.93;7.60;;;18.70;99.90;;;;;;4976872;28;20121;-73
2022/04/13 09:13:34;;;;;;;14.18;7.70;;;18.50;99.90;;;;;;4977439;28;20053;-73
2022/04/13 09:16:01;;;;;;;13.77;7.95;;;18.50;99.90;;;;;;4978178;28;20046;-74
2022/04/13 09:18:27;;;;;;;12.00;6.88;;;18.40;99.90;;;;;;4975909;28;20095;-75
2022/04/13 09:20:53;;;;;;;14.07;7.43;;;18.60;99.90;;;;;;4977761;28;20038;-75
2022/04/13 09:23:19;;;;;;;10.30;6.90;;;18.90;99.90;;;;;;4962760;28;20130;-74
2022/04/13 09:25:46;;;;;;;15.23;8.95;;;19.10;99.90;;;;;;4965795;28;20486;-73
2022/04/13 09:28:11;;;;;;;16.13;8.27;;;19.30;99.90;;;;;;4977556;28;20105;-74
2022/04/13 09:30:37;;;;;;;11.55;7.57;;;19.70;99.90;;;;;;4976863;28;20054;-76
2022/04/13 09:33:03;;;;;;;14.00;7.95;;;19.90;99.90;;;;;;4976312;28;20097;-74
2022/04/13 09:35:31;;;;;;;13.68;7.85;;;20.20;99.90;;;;;;4977423;28;20034;-74
2022/04/13 09:38:01;;;;;;;14.45;7.65;;;20.60;99.90;;;;;;4977374;28;20502;-75
2022/04/13 09:40:33;;;;;;;12.85;7.63;;;21.00;99.90;;;;;;4977522;28;20074;-76
2022/04/13 09:43:08;;;;;;;10.98;6.63;;;20.60;99.90;;;;;;4976220;28;20455;-73
2022/04/13 09:45:36;;;;;;;13.40;6.88;;;20.30;99.90;;;;;;4959978;28;20055;-73
2022/04/13 09:48:06;;;;;;;12.88;7.10;;;20.00;99.90;;;;;;4977257;28;20070;-72
2022/04/13 09:50:33;;;;;;;12.45;7.22;;;19.70;99.90;;;;;;4977356;28;20050;-73
2022/04/13 09:53:03;;;;;;;11.45;7.55;;;19.40;99.90;;;;;;4977130;28;20121;-74
2022/04/13 09:55:29;;;;;;;14.00;7.25;;;19.30;99.90;;;;;;4977112;28;20047;-73
2022/04/13 09:58:05;;;;;;;11.57;6.53;;;19.00;99.90;;;;;;4976832;28;20073;-73
2022/04/13 10:00:31;;;;;;;14.73;6.68;;;19.10;99.90;;;;;;4976009;28;20050;-73
2022/04/13 10:03:17;;;;;;;8.63;4.80;;;19.10;99.90;;;;;;4977182;28;20325;-72
2022/04/13 10:05:49;;;;;;;8.10;4.43;;;19.20;99.90;;;;;;4977091;28;20051;-72
2022/04/13 10:08:15;;;;;;;9.18;4.70;;;19.10;99.90;;;;;;4976507;28;20116;-74
2022/04/13 10:10:43;;;;;;;9.20;4.63;;;19.00;99.90;;;;;;4976761;28;20085;-74
2022/04/13 10:13:09;;;;;;;9.65;4.43;;;19.00;99.90;;;;;;4977052;28;20047;-73
2022/04/13 10:15:35;;;;;;;10.52;4.55;;;19.10;99.90;;;;;;4976918;28;20039;-74
2022/04/13 10:18:01;;;;;;;9.15;5.05;;;19.20;99.90;;;;;;4974885;28;20043;-74
2022/04/13 10:20:47;;;;;;;10.82;4.50;;;19.30;99.90;;;;;;4975838;28;20046;-73
2022/04/13 10:23:14;;;;;;;9.23;3.90;;;19.50;99.90;;;;;;4975896;28;20486;-73
2022/04/13 10:25:41;;;;;;;8.75;3.83;;;19.60;99.90;;;;;;4992840;28;20054;-75
2022/04/13 10:28:07;;;;;;;7.25;3.25;;;19.70;99.90;;;;;;4962899;28;20054;-73
2022/04/13 10:30:37;;;;;;;6.72;3.47;;;19.80;99.90;;;;;;4995994;28;20109;-75
2022/04/13 10:33:05;;;;;;;5.28;2.95;;;19.70;99.90;;;;;;4995829;28;20042;-74
2022/04/13 10:35:33;;;;;;;7.30;2.70;;;19.80;99.90;;;;;;4962852;28;20054;-73
2022/04/13 10:37:59;;;;;;;10.18;3.42;;;19.90;99.90;;;;;;4995775;28;20133;-74
2022/04/13 10:40:28;;;;;;;6.97;3.63;;;20.00;99.90;;;;;;4995809;28;20412;-74
2022/04/13 10:42:58;;;;;;;10.30;4.38;;;20.10;99.90;;;;;;4995910;28;20058;-73
2022/04/13 10:45:27;;;;;;;7.72;3.58;;;20.10;99.90;;;;;;4995883;28;20360;-75
2022/04/13 10:48:05;;;;;;;4.78;2.58;;;20.20;99.90;;;;;;4978788;28;20050;-74
2022/04/13 10:50:36;;;;;;;9.52;3.60;;;20.20;99.90;;;;;;4995616;28;20046;-74
2022/04/13 10:53:16;;;;;;;11.18;3.92;;;20.20;99.90;;;;;;4994683;28;20494;-72
2022/04/13 10:55:44;;;;;;;9.05;3.40;;;20.20;99.90;;;;;;4995640;28;20044;-74
2022/04/13 10:58:38;;;;;;;7.20;3.20;;;20.20;99.90;;;;;;4995334;28;20043;-73
2022/04/13 11:01:05;;;;;;;7.13;2.75;;;20.40;99.90;;;;;;4978468;28;20061;-75
2022/04/13 11:03:38;;;;;;;6.47;3.35;;;20.50;99.90;;;;;;4978458;28;20485;-74
2022/04/13 11:06:05;;;;;;;10.05;3.22;;;20.40;99.90;;;;;;4978379;28;20046;-76
2022/04/13 11:09:02;;;;;;;7.45;2.80;;;20.60;99.90;;;;;;4994579;28;20327;-75
2022/04/13 11:11:29;;;;;;;6.80;2.72;;;20.90;99.90;;;;;;4978304;28;20382;-74
2022/04/13 11:13:55;;;;;;;5.28;2.50;;;21.00;99.90;;;;;;4995642;28;20139;-74
2022/04/13 11:16:23;;;;;;;6.70;3.15;;;21.00;99.90;;;;;;4995746;28;20089;-73
2022/04/13 11:19:09;;;;;;;6.65;2.63;;;20.90;99.90;;;;;;4995690;28;20048;-73
2022/04/13 11:21:53;;;;;;;7.32;2.72;;;21.00;99.90;;;;;;4994738;28;20042;-74
2022/04/13 11:24:35;;;;;;;8.30;2.20;;;21.00;99.90;;;;;;4978247;28;20104;-74
2022/04/13 11:27:03;;;;;;;6.63;2.30;;;21.00;99.90;;;;;;4995519;28;20383;-74
2022/04/13 11:29:34;;;;;;;7.30;2.58;;;21.00;99.90;;;;;;4979922;28;20117;-73
2022/04/13 11:32:05;;;;;;;6.15;3.10;;;21.30;99.90;;;;;;4999063;28;20042;-73
2022/04/13 11:34:51;;;;;;;9.10;3.20;;;21.30;99.90;;;;;;4981881;28;20061;-74
2022/04/13 11:37:25;;;;;;;7.97;3.15;;;21.60;99.90;;;;;;4981887;28;20046;-73
2022/04/13 11:39:52;;;;;;;9.40;2.28;;;21.70;99.90;;;;;;4999647;28;20058;-74
2022/04/13 11:42:20;;;;;;;6.47;2.40;;;21.60;99.90;;;;;;4999238;28;20122;-73
2022/04/13 11:44:59;;;;;;;6.15;2.10;;;21.50;99.90;;;;;;4999305;28;20117;-75
2022/04/13 11:47:53;;;;;;;6.28;1.83;;;21.40;99.90;;;;;;4999009;28;20043;-74
2022/04/13 11:50:20;;;;;;;7.63;2.47;;;21.30;99.90;;;;;;4999542;28;20085;-72
2022/04/13 11:53:09;;;;;;;8.43;2.33;;;21.20;99.90;;;;;;4998630;28;20442;-74
2022/04/13 11:55:40;;;;;;;8.52;3.10;;;21.10;99.90;;;;;;4998888;28;20050;-74
2022/04/13 11:58:08;;;;;;;10.07;2.72;;;21.00;99.90;;;;;;4981611;28;20046;-74
2022/04/13 12:00:42;;;;;;;8.77;2.90;;;20.80;99.90;;;;;;4981664;28;20370;-73
2022/04/13 12:03:20;;;;;;;19.65;3.30;;;20.60;99.90;;;;;;4999035;28;20547;-74
2022/04/13 12:05:52;;;;;;;8.40;2.95;;;20.40;99.90;;;;;;4998733;28;20050;-74
2022/04/13 12:08:27;;;;;;;12.25;3.45;;;20.20;99.90;;;;;;4998652;28;20046;-73
2022/04/13 12:11:04;;;;;;;8.25;3.17;;;20.10;99.90;;;;;;4981328;28;20046;-72
2022/04/13 12:13:34;;;;;;;10.50;2.88;;;20.00;99.90;;;;;;4998497;28;20046;-74
2022/04/13 12:16:01;;;;;;;7.57;3.13;;;20.10;99.90;;;;;;4998424;28;20046;-72
2022/04/13 12:18:27;;;;;;;7.95;2.63;;;19.90;99.90;;;;;;4998245;28;20521;-74
2022/04/13 12:21:16;;;;;;;6.97;2.83;;;19.90;99.90;;;;;;4996780;28;20042;-71
2022/04/13 12:23:42;;;;;;;12.88;3.20;;;19.90;99.90;;;;;;4978597;28;20081;-71
2022/04/13 12:26:08;;;;;;;8.90;2.88;;;19.90;99.90;;;;;;4978597;28;20051;-71
2022/04/13 12:28:35;;;;;;;8.85;3.00;;;20.10;99.90;;;;;;4979127;28;20053;-72
2022/04/13 12:31:10;;;;;;;8.10;2.60;;;20.10;99.90;;;;;;4978706;28;20043;-73
2022/04/13 12:33:37;;;;;;;8.85;2.50;;;20.10;99.90;;;;;;4961680;28;20046;-72
2022/04/13 12:36:08;;;;;;;4.78;1.20;;;20.10;99.90;;;;;;4978657;28;20181;-72
2022/04/13 12:38:42;;;;;;;5.35;1.20;;;20.00;99.90;;;;;;4961066;28;20137;-72